Romulus, Alabama
Current Conditions -  °F | °C
As of 8:53 PM on Friday 21 Nov 2014 (Local Time) from KTCL Reporting Station
Clear Clear  
Wind Chill: 46°   Ceiling: Unl
Heat Index: 48°   Visibility: 9mi
Dew Point: 44°   Wind: 5mph
Humidity: 86%   Direction: 80°E
Pressure: 30.34"   Gusts: NA
Location:  33.2658°N, 87.7278°W
Report Text: KTCL 220253Z AUTO 08004KT 9SM CLR 09/07 A3034 RMK AO2 SLP274 T00890067 50004
Loading
Personal Weather Stations






























Interactive Weather Map New forecast layout! Learn more

10-Day Weather Forecast

Advertisements
Track Severe Weather on mobile